Time;durP1;ratioP1;P1;durP2;ratioP2;P2;SDS_P1;SDS_P2;PMS_P1;PMS_P2;Temp;Humidity;BMP_temperature;BMP_pressure;BME280_temperature;BME280_humidity;BME280_pressure;Samples;Min_cycle;Max_cycle;Signal;HPM_P1;HPM_P2
2022/10/08 00:00:52;;;;;;;15.50;5.58;;;;;;;4.36;100.00;101914.14;1735971;82;20929;-40
2022/10/08 00:03:20;;;;;;;9.38;5.85;;;;;;;4.31;100.00;101915.31;1735626;82;21206;-40
2022/10/08 00:06:08;;;;;;;23.45;12.98;;;;;;;4.28;100.00;101908.37;1739676;82;21494;-37
2022/10/08 00:08:37;;;;;;;11.68;5.62;;;;;;;4.28;100.00;101910.05;1735781;82;20878;-40
2022/10/08 00:11:10;;;;;;;8.88;5.95;;;;;;;4.27;100.00;101909.59;1735768;82;20945;-38
2022/10/08 00:13:39;;;;;;;28.20;12.30;;;;;;;4.27;100.00;101905.75;1735845;82;20992;-37
2022/10/08 00:16:14;;;;;;;25.37;13.78;;;;;;;4.32;100.00;101904.22;1739403;82;21058;-36
2022/10/08 00:18:43;;;;;;;16.52;7.25;;;;;;;4.35;100.00;101908.16;1735848;82;20976;-36
2022/10/08 00:21:14;;;;;;;22.95;9.43;;;;;;;4.37;100.00;101906.91;1735865;82;20950;-37
2022/10/08 00:23:49;;;;;;;19.40;10.88;;;;;;;4.39;100.00;101906.14;1735721;82;21262;-36
2022/10/08 00:26:13;;;;;;;16.42;7.70;;;;;;;4.36;100.00;101901.32;1735323;82;20979;-39
2022/10/08 00:28:44;;;;;;;12.25;5.80;;;;;;;4.31;100.00;101900.78;1736039;82;21930;-37
2022/10/08 00:31:15;;;;;;;23.20;10.32;;;;;;;4.26;100.00;101893.76;1735784;82;20953;-40
2022/10/08 00:33:41;;;;;;;15.03;7.62;;;;;;;4.26;100.00;101897.61;1736153;82;21051;-38
2022/10/08 00:36:10;;;;;;;13.70;7.17;;;;;;;4.25;100.00;101896.75;1735739;81;20937;-38
2022/10/08 00:38:37;;;;;;;8.35;5.83;;;;;;;4.21;100.00;101891.47;1735886;82;21317;-35
2022/10/08 00:41:06;;;;;;;12.25;6.87;;;;;;;4.14;100.00;101886.16;1735719;82;21222;-40
2022/10/08 00:43:45;;;;;;;15.25;7.58;;;;;;;4.11;100.00;101893.76;1735788;82;20973;-38
2022/10/08 00:46:34;;;;;;;18.95;9.30;;;;;;;4.12;100.00;101886.92;1735830;82;21031;-37
2022/10/08 00:49:14;;;;;;;9.35;6.12;;;;;;;4.09;100.00;101883.88;1736215;82;20949;-37
2022/10/08 00:51:48;;;;;;;10.90;5.55;;;;;;;4.05;100.00;101891.02;1735678;81;20933;-39
2022/10/08 00:54:16;;;;;;;41.48;22.58;;;;;;;4.03;100.00;101880.70;1736011;82;21166;-38
2022/10/08 00:56:43;;;;;;;27.73;15.25;;;;;;;4.08;100.00;101879.97;1735709;82;21490;-41
2022/10/08 00:59:11;;;;;;;30.55;16.20;;;;;;;4.06;100.00;101879.05;1739349;81;20953;-38
2022/10/08 01:01:42;;;;;;;24.82;14.00;;;;;;;4.00;100.00;101878.05;1735598;81;20976;-39
2022/10/08 01:04:10;;;;;;;22.58;9.98;;;;;;;3.95;100.00;101871.02;1735906;82;21212;-37
2022/10/08 01:07:07;;;;;;;14.90;8.65;;;;;;;3.89;100.00;101871.69;1735744;82;21170;-40
2022/10/08 01:09:41;;;;;;;14.03;8.60;;;;;;;3.88;100.00;101873.80;1736215;80;21028;-39
2022/10/08 01:12:29;;;;;;;20.57;11.43;;;;;;;3.79;100.00;101864.16;1735719;81;20968;-38
2022/10/08 01:15:13;;;;;;;14.58;8.05;;;;;;;3.74;100.00;101860.16;1736027;82;20894;-39
2022/10/08 01:17:52;;;;;;;;;;;;;;;3.79;100.00;101863.27;1738502;82;20984;-35
2022/10/08 01:20:51;;;;;;;21.27;9.43;;;;;;;3.83;100.00;101864.70;1735900;81;21145;-37
2022/10/08 01:23:38;;;;;;;26.17;11.40;;;;;;;3.79;100.00;101863.27;1743354;81;20933;-36
2022/10/08 01:26:42;;;;;;;16.85;7.92;;;;;;;3.68;100.00;101865.48;1743894;82;21431;-34
2022/10/08 01:29:26;;;;;;;26.15;12.78;;;;;;;3.68;100.00;101865.48;1744020;81;20956;-40
2022/10/08 01:31:57;;;;;;;18.17;10.80;;;;;;;3.63;100.00;101864.03;1744035;82;20936;-38
2022/10/08 01:34:40;;;;;;;20.37;12.05;;;;;;;3.58;100.00;101865.58;1744112;82;21078;-35
2022/10/08 01:37:09;;;;;;;18.87;11.22;;;;;;;3.43;100.00;101866.83;1743962;81;20885;-35
2022/10/08 01:39:36;;;;;;;14.13;9.58;;;;;;;3.43;100.00;101866.83;1744118;82;20937;-37
2022/10/08 01:42:04;;;;;;;11.70;8.15;;;;;;;3.37;100.00;101867.03;1744046;81;20992;-37
2022/10/08 01:44:36;;;;;;;10.18;6.65;;;;;;;3.34;100.00;101866.50;1744129;82;21520;-37
2022/10/08 01:47:08;;;;;;;13.70;7.83;;;;;;;3.34;100.00;101866.50;1744030;81;21296;-36
2022/10/08 01:49:45;;;;;;;13.25;8.05;;;;;;;3.42;100.00;101862.53;1715606;82;20963;-39
2022/10/08 01:52:16;;;;;;;18.52;7.92;;;;;;;3.46;100.00;101864.77;1743708;82;21498;-38
2022/10/08 01:54:43;;;;;;;15.75;7.85;;;;;;;3.42;100.00;101867.66;1743653;82;21688;-36
2022/10/08 01:57:10;;;;;;;13.58;8.15;;;;;;;3.40;100.00;101862.00;1744218;82;20979;-38
2022/10/08 01:59:49;;;;;;;20.37;7.08;;;;;;;3.39;100.00;101856.00;1744137;82;21066;-39
2022/10/08 02:02:24;;;;;;;17.55;9.40;;;;;;;3.30;100.00;101864.66;1744095;81;21485;-37
2022/10/08 02:04:52;;;;;;;9.20;5.78;;;;;;;3.30;100.00;101864.66;1743914;82;21498;-38
2022/10/08 02:07:23;;;;;;;14.50;7.47;;;;;;;3.26;100.00;101862.39;1744097;82;21466;-40
2022/10/08 02:09:55;;;;;;;15.80;6.72;;;;;;;3.24;100.00;101865.31;1743990;82;20964;-37
2022/10/08 02:12:22;;;;;;;13.38;8.18;;;;;;;3.19;100.00;101868.55;1742929;82;21283;-39
2022/10/08 02:14:52;;;;;;;27.37;14.93;;;;;;;3.12;100.00;101863.20;1744108;82;20881;-38
2022/10/08 02:17:27;;;;;;;12.13;6.70;;;;;;;3.13;100.00;101869.20;1744200;81;20936;-38
2022/10/08 02:20:02;;;;;;;19.70;9.50;;;;;;;3.13;100.00;101869.20;1743799;82;20967;-36
2022/10/08 02:22:34;;;;;;;27.17;16.55;;;;;;;3.12;100.00;101869.59;1740352;81;20984;-39
2022/10/08 02:25:12;;;;;;;22.75;12.65;;;;;;;3.14;100.00;101868.38;1735962;82;21531;-38
2022/10/08 02:28:02;;;;;;;20.82;11.68;;;;;;;3.12;100.00;101864.47;1736182;82;20972;-38
2022/10/08 02:30:43;;;;;;;43.95;24.40;;;;;;;3.10;100.00;101869.95;1735741;81;21522;-39
2022/10/08 02:33:28;;;;;;;18.25;9.68;;;;;;;3.05;100.00;101872.77;1736101;82;20952;-37
2022/10/08 02:35:56;;;;;;;27.58;16.80;;;;;;;3.01;100.00;101873.05;1735680;82;21502;-37
2022/10/08 02:38:28;;;;;;;12.85;8.10;;;;;;;2.97;100.00;101867.37;1735996;81;21156;-38
2022/10/08 02:40:57;;;;;;;20.32;9.88;;;;;;;2.96;100.00;101874.58;1735611;82;21507;-39
2022/10/08 02:43:25;;;;;;;19.55;10.98;;;;;;;2.94;100.00;101874.08;1735982;82;20885;-35
2022/10/08 02:46:00;;;;;;;40.70;26.23;;;;;;;2.90;100.00;101874.37;1735977;82;20937;-38
2022/10/08 02:48:30;;;;;;;9.67;5.80;;;;;;;2.88;100.00;101873.02;1735927;82;20972;-39
2022/10/08 02:51:00;;;;;;;14.68;5.20;;;;;;;2.92;100.00;101867.62;1735849;81;21099;-36
2022/10/08 02:53:27;;;;;;;8.78;4.50;;;;;;;2.95;100.00;101871.98;1735761;82;20999;-38
2022/10/08 02:56:23;;;;;;;11.10;5.45;;;;;;;2.93;100.00;101871.06;1735827;81;21541;-39
2022/10/08 02:58:49;;;;;;;12.60;5.00;;;;;;;2.91;100.00;101873.98;1712619;82;20917;-37
2022/10/08 03:01:25;;;;;;;8.73;4.92;;;;;;;2.83;100.00;101867.30;1735807;82;20996;-38
2022/10/08 03:04:00;;;;;;;15.35;5.90;;;;;;;2.80;100.00;101867.19;1735656;82;21904;-35
2022/10/08 03:06:27;;;;;;;9.03;4.75;;;;;;;2.77;100.00;101864.49;1735833;81;21491;-38
2022/10/08 03:08:55;;;;;;;6.50;4.80;;;;;;;2.74;100.00;101865.28;1735947;82;21439;-38
2022/10/08 03:11:22;;;;;;;9.05;5.60;;;;;;;2.72;100.00;101867.77;1735807;82;20937;-39
2022/10/08 03:13:49;;;;;;;8.45;4.72;;;;;;;2.68;100.00;101865.06;1735875;82;21387;-37
2022/10/08 03:16:20;;;;;;;5.35;4.72;;;;;;;2.63;100.00;101865.27;1735852;82;21141;-39
2022/10/08 03:18:48;;;;;;;6.85;4.37;;;;;;;2.61;100.00;101870.73;1735809;82;20850;-36
2022/10/08 03:21:16;;;;;;;10.28;4.78;;;;;;;2.57;100.00;101869.77;1735831;82;21027;-36
2022/10/08 03:23:43;;;;;;;8.38;4.62;;;;;;;2.53;100.00;101875.17;1747478;81;20946;-39
2022/10/08 03:26:10;;;;;;;8.93;5.28;;;;;;;2.51;100.00;101870.80;1749940;82;20963;-38
2022/10/08 03:28:37;;;;;;;11.73;5.00;;;;;;;2.48;100.00;101865.19;1749976;82;21090;-39
2022/10/08 03:31:05;;;;;;;7.05;4.62;;;;;;;2.46;100.00;101868.48;1749890;82;20881;-37
2022/10/08 03:33:33;;;;;;;6.17;4.85;;;;;;;2.46;100.00;101856.98;1749896;82;21009;-37
2022/10/08 03:36:00;;;;;;;8.18;5.47;;;;;;;2.43;100.00;101860.31;1749881;82;20944;-38
2022/10/08 03:38:27;;;;;;;11.38;5.40;;;;;;;2.41;100.00;101855.55;1749738;82;20991;-38
2022/10/08 03:40:56;;;;;;;10.40;5.62;;;;;;;2.40;100.00;101860.17;1749868;82;21253;-37
2022/10/08 03:43:23;;;;;;;10.38;5.83;;;;;;;2.38;100.00;101865.62;1749639;82;20920;-40
2022/10/08 03:45:53;;;;;;;13.18;6.50;;;;;;;2.34;100.00;101857.39;1750060;82;20889;-42
2022/10/08 03:48:21;;;;;;;24.55;6.55;;;;;;;2.25;100.00;101866.45;1749880;82;21438;-40
2022/10/08 03:50:57;;;;;;;13.80;6.33;;;;;;;2.25;100.00;101866.45;1749793;82;20893;-39
2022/10/08 03:53:24;;;;;;;11.88;6.08;;;;;;;2.22;100.00;101865.06;1749853;82;21034;-38
2022/10/08 03:55:52;;;;;;;16.95;6.25;;;;;;;2.20;100.00;101867.97;1749788;82;20983;-40
2022/10/08 03:58:19;;;;;;;10.75;6.15;;;;;;;2.17;100.00;101861.86;1750012;82;21478;-37
2022/10/08 04:01:05;;;;;;;12.53;6.25;;;;;;;2.16;100.00;101863.56;1749864;82;21569;-40
2022/10/08 04:03:33;;;;;;;9.08;6.12;;;;;;;2.18;100.00;101867.04;1749778;81;20845;-40
2022/10/08 04:06:00;;;;;;;11.78;6.53;;;;;;;2.19;100.00;101871.34;1749811;82;21148;-39
2022/10/08 04:08:26;;;;;;;11.50;5.70;;;;;;;2.18;100.00;101864.48;1749842;81;21042;-38
2022/10/08 04:10:54;;;;;;;16.15;6.95;;;;;;;2.17;100.00;101865.69;1749806;82;21015;-38
2022/10/08 04:13:20;;;;;;;15.55;7.42;;;;;;;2.18;100.00;101858.09;1749758;81;21530;-41
2022/10/08 04:15:49;;;;;;;13.45;7.87;;;;;;;2.21;100.00;101862.05;1749802;82;21003;-41
2022/10/08 04:18:16;;;;;;;12.18;6.87;;;;;;;2.23;100.00;101856.59;1749817;81;21898;-36
2022/10/08 04:20:43;;;;;;;22.45;8.70;;;;;;;2.21;100.00;101848.38;1749876;82;21417;-36
2022/10/08 04:23:10;;;;;;;14.03;8.63;;;;;;;2.21;100.00;101848.38;1749742;81;20967;-40
2022/10/08 04:25:37;;;;;;;19.92;10.98;;;;;;;2.24;100.00;101853.22;1746861;81;20967;-35
2022/10/08 04:28:04;;;;;;;16.75;10.85;;;;;;;2.26;100.00;101855.81;1749957;82;21032;-40
2022/10/08 04:30:32;;;;;;;12.75;9.43;;;;;;;2.26;100.00;101851.59;1749958;82;21166;-38
2022/10/08 04:32:59;;;;;;;14.75;10.65;;;;;;;2.30;100.00;101852.59;1749845;82;20968;-41
2022/10/08 04:35:25;;;;;;;18.52;9.45;;;;;;;2.30;100.00;101852.59;1749798;82;20934;-39
2022/10/08 04:37:52;;;;;;;15.08;7.87;;;;;;;2.36;100.00;101850.25;1750121;82;20971;-38
2022/10/08 04:40:19;;;;;;;15.23;7.22;;;;;;;2.44;100.00;101849.27;1749917;82;21382;-37
2022/10/08 04:42:50;;;;;;;13.83;6.17;;;;;;;2.52;100.00;101852.97;1749824;82;21176;-38
2022/10/08 04:45:17;;;;;;;12.00;6.85;;;;;;;2.61;100.00;101844.78;1747023;82;20959;-40
2022/10/08 04:47:44;;;;;;;8.55;6.45;;;;;;;2.76;100.00;101849.97;1749827;82;20967;-41
2022/10/08 04:50:10;;;;;;;19.62;6.97;;;;;;;2.91;100.00;101853.52;1749854;82;20897;-40
2022/10/08 04:52:37;;;;;;;14.53;6.33;;;;;;;3.05;100.00;101848.88;1749859;82;21496;-36
2022/10/08 04:55:07;;;;;;;11.93;6.00;;;;;;;3.12;100.00;101845.28;1749894;82;21158;-38
2022/10/08 04:57:34;;;;;;;16.35;7.20;;;;;;;3.25;100.00;101850.84;1698877;82;21439;-40
2022/10/08 05:00:02;;;;;;;10.18;6.75;;;;;;;3.33;100.00;101852.39;1749907;82;20972;-40
2022/10/08 05:02:29;;;;;;;7.42;6.15;;;;;;;3.43;100.00;101858.27;1722605;82;20936;-40
2022/10/08 05:04:56;;;;;;;17.15;6.65;;;;;;;3.54;100.00;101858.62;1749804;82;20896;-39
2022/10/08 05:07:24;;;;;;;11.65;6.78;;;;;;;3.65;100.00;101863.67;1749838;81;21129;-40
2022/10/08 05:09:52;;;;;;;12.88;6.70;;;;;;;3.76;100.00;101852.92;1749699;82;20987;-38
2022/10/08 05:12:19;;;;;;;9.00;5.45;;;;;;;3.97;100.00;101855.28;1749811;82;20897;-38
2022/10/08 05:14:46;;;;;;;9.98;6.08;;;;;;;3.97;100.00;101855.28;1749813;82;20936;-39
2022/10/08 05:17:14;;;;;;;7.92;5.37;;;;;;;4.10;100.00;101855.25;1749828;82;20833;-36
2022/10/08 05:19:42;;;;;;;15.20;6.22;;;;;;;4.31;100.00;101852.06;1749841;82;21019;-37
2022/10/08 05:22:09;;;;;;;8.15;5.45;;;;;;;4.31;100.00;101852.06;1749929;82;21540;-39
2022/10/08 05:24:36;;;;;;;15.30;6.15;;;;;;;4.43;100.00;101845.58;1749667;81;20933;-38
2022/10/08 05:27:03;;;;;;;14.60;6.65;;;;;;;4.56;100.00;101837.82;1750028;82;21469;-40
2022/10/08 05:29:30;;;;;;;18.82;7.70;;;;;;;4.73;100.00;101842.14;1722500;82;21031;-39
2022/10/08 05:31:57;;;;;;;16.12;7.53;;;;;;;4.88;100.00;101848.96;1749783;81;21237;-39
2022/10/08 05:34:24;;;;;;;20.70;7.67;;;;;;;5.01;100.00;101848.02;1749825;81;20885;-38
2022/10/08 05:39:03;;;;;;;19.17;8.73;;;;;;;5.35;100.00;101850.19;1798283;79;22281;-37
2022/10/08 05:41:34;;;;;;;19.62;7.78;;;;;;;5.45;100.00;101838.05;1758104;81;20916;-37
2022/10/08 05:44:02;;;;;;;13.70;7.28;;;;;;;5.63;100.00;101843.16;1724498;83;22041;-37
2022/10/08 05:46:32;;;;;;;10.68;5.60;;;;;;;5.81;100.00;101839.30;1724519;83;20868;-37
2022/10/08 05:49:01;;;;;;;13.40;5.72;;;;;;;5.98;100.00;101840.97;1724491;83;20923;-39
2022/10/08 05:51:28;;;;;;;11.38;6.30;;;;;;;6.14;100.00;101839.24;1724889;83;20896;-37
2022/10/08 05:53:58;;;;;;;9.70;5.12;;;;;;;6.29;100.00;101838.70;1724625;83;20986;-38
2022/10/08 05:56:25;;;;;;;12.50;5.53;;;;;;;6.42;100.00;101834.69;1724584;83;21058;-38
2022/10/08 05:58:52;;;;;;;9.13;5.00;;;;;;;6.57;100.00;101839.27;1724335;83;20978;-38
2022/10/08 06:01:26;;;;;;;7.75;4.70;;;;;;;6.73;100.00;101843.02;1724118;83;21394;-39
2022/10/08 06:03:58;;;;;;;7.42;4.90;;;;;;;6.88;100.00;101845.02;1698556;84;20929;-39
2022/10/08 06:06:25;;;;;;;9.58;5.05;;;;;;;7.02;100.00;101840.56;1698571;84;21510;-40
2022/10/08 06:08:57;;;;;;;9.75;4.85;;;;;;;7.11;100.00;101838.14;1698470;84;21022;-37
2022/10/08 06:11:25;;;;;;;9.58;5.20;;;;;;;7.24;100.00;101837.09;1698440;84;21016;-37
2022/10/08 06:13:55;;;;;;;5.83;4.95;;;;;;;7.36;100.00;101841.59;1698403;84;20980;-38
2022/10/08 06:16:22;;;;;;;10.53;4.83;;;;;;;7.47;100.00;101836.18;1698685;84;21062;-39
2022/10/08 06:18:50;;;;;;;13.68;5.50;;;;;;;7.57;100.00;101836.77;1698504;84;20905;-38
2022/10/08 06:21:21;;;;;;;9.63;5.42;;;;;;;7.71;100.00;101840.00;1716526;83;21149;-36
2022/10/08 06:23:50;;;;;;;7.58;5.45;;;;;;;7.83;100.00;101844.47;1708973;84;21008;-38
2022/10/08 06:26:17;;;;;;;12.70;4.95;;;;;;;7.94;100.00;101844.20;1709038;84;20955;-39
2022/10/08 06:28:44;;;;;;;14.03;5.42;;;;;;;8.05;100.00;101838.79;1709090;83;20924;-37
2022/10/08 06:31:11;;;;;;;10.78;4.53;;;;;;;8.19;100.00;101838.09;1709029;83;21002;-40
2022/10/08 06:33:38;;;;;;;12.98;5.10;;;;;;;8.33;100.00;101843.03;1709127;84;21225;-37
2022/10/08 06:36:09;;;;;;;9.38;4.28;;;;;;;8.46;100.00;101839.30;1708887;84;21522;-40
2022/10/08 06:38:37;;;;;;;8.05;4.50;;;;;;;8.58;100.00;101837.33;1696848;83;21434;-39
2022/10/08 06:41:04;;;;;;;7.17;4.25;;;;;;;8.70;100.00;101837.90;1696359;83;20921;-37
2022/10/08 06:43:31;;;;;;;7.37;4.47;;;;;;;8.81;100.00;101821.23;1688743;84;20996;-38
2022/10/08 06:45:59;;;;;;;9.05;4.00;;;;;;;8.98;100.00;101827.89;1696386;84;21261;-40
2022/10/08 06:48:26;;;;;;;7.28;4.53;;;;;;;9.12;100.00;101829.32;1696208;83;20992;-39
2022/10/08 06:51:03;;;;;;;13.38;5.25;;;;;;;9.25;100.00;101827.72;1666112;84;20980;-38
2022/10/08 06:53:30;;;;;;;7.72;4.47;;;;;;;9.37;100.00;101824.38;1695751;84;21506;-39
2022/10/08 06:56:03;;;;;;;6.28;4.62;;;;;;;9.53;100.00;101818.90;1695944;83;21023;-37
2022/10/08 06:58:31;;;;;;;9.70;4.25;;;;;;;9.67;100.00;101818.55;1695748;84;21261;-40
2022/10/08 07:01:04;;;;;;;17.65;4.80;;;;;;;9.84;100.00;101815.23;1695847;84;20968;-37
2022/10/08 07:03:32;;;;;;;9.20;4.22;;;;;;;10.06;100.00;101810.63;1695893;84;20977;-39
2022/10/08 07:06:04;;;;;;;7.72;4.28;;;;;;;10.25;100.00;101806.84;1695958;84;21514;-38
2022/10/08 07:08:31;;;;;;;10.63;4.30;;;;;;;10.39;100.00;101803.02;1665656;84;21027;-39
2022/10/08 07:11:11;;;;;;;7.53;3.95;;;;;;;10.55;100.00;101800.48;1695974;83;21096;-38
2022/10/08 07:13:38;;;;;;;10.23;4.22;;;;;;;10.67;100.00;101796.66;1695821;84;20941;-39
2022/10/08 07:16:16;;;;;;;9.38;4.47;;;;;;;10.82;100.00;101804.89;1695911;84;21043;-40
2022/10/08 07:18:44;;;;;;;9.33;4.92;;;;;;;10.98;100.00;101798.00;1695948;84;21004;-40
2022/10/08 07:21:13;;;;;;;10.90;4.65;;;;;;;11.07;100.00;101803.63;1696003;84;21000;-39
2022/10/08 07:23:39;;;;;;;13.05;5.45;;;;;;;11.26;100.00;101791.54;1695825;84;21949;-41
2022/10/08 07:26:12;;;;;;;8.65;5.03;;;;;;;11.44;100.00;101793.70;1695891;84;21494;-41
2022/10/08 07:28:42;;;;;;;12.65;5.58;;;;;;;11.61;100.00;101795.83;1696119;84;20972;-40
2022/10/08 07:31:17;;;;;;;9.70;5.37;;;;;;;11.75;100.00;101792.36;1695715;84;21015;-37
2022/10/08 07:33:45;;;;;;;10.82;4.65;;;;;;;11.87;100.00;101789.75;1696206;84;21465;-36
2022/10/08 07:36:15;;;;;;;9.55;4.22;;;;;;;12.03;100.00;101790.60;1695950;84;21230;-40
2022/10/08 07:38:42;;;;;;;8.48;5.00;;;;;;;12.18;100.00;101788.38;1708649;83;21428;-38
2022/10/08 07:41:10;;;;;;;9.70;3.98;;;;;;;12.34;100.00;101792.19;1716996;83;21029;-40
2022/10/08 07:43:41;;;;;;;3.83;3.17;;;;;;;12.47;100.00;101783.48;1717072;83;20950;-37
2022/10/08 07:46:10;;;;;;;6.58;3.40;;;;;;;12.63;100.00;101779.06;1717021;83;20954;-39
2022/10/08 07:48:37;;;;;;;3.37;2.77;;;;;;;12.81;100.00;101779.83;1721588;83;21649;-39
2022/10/08 07:51:15;;;;;;;11.00;3.47;;;;;;;12.99;100.00;101785.75;1692410;83;20939;-38
2022/10/08 07:53:42;;;;;;;7.97;3.05;;;;;;;13.19;100.00;101781.27;1692818;84;21045;-40
2022/10/08 07:56:12;;;;;;;7.47;3.10;;;;;;;13.38;100.00;101777.21;1721501;83;21401;-39
2022/10/08 07:58:38;;;;;;;3.60;3.02;;;;;;;13.60;100.00;101782.25;1721776;82;20932;-38
2022/10/08 08:01:09;;;;;;;4.92;2.67;;;;;;;13.81;100.00;101775.95;1692729;84;21145;-39
2022/10/08 08:03:36;;;;;;;4.62;2.65;;;;;;;14.00;100.00;101762.27;1692669;84;21022;-40
2022/10/08 08:06:12;;;;;;;3.83;2.50;;;;;;;14.13;100.00;101764.74;1692766;84;21035;-38
2022/10/08 08:08:40;;;;;;;3.87;2.72;;;;;;;14.26;98.50;101770.20;1692596;84;20956;-38
2022/10/08 08:11:09;;;;;;;7.22;2.70;;;;;;;14.49;99.17;101763.82;1693020;83;21445;-38
2022/10/08 08:13:38;;;;;;;5.35;2.60;;;;;;;14.73;96.57;101774.80;1692750;84;21241;-39
2022/10/08 08:16:16;;;;;;;5.22;3.22;;;;;;;14.93;95.86;101773.22;1694674;83;21493;-36
2022/10/08 08:18:46;;;;;;;5.40;3.20;;;;;;;15.13;95.70;101771.59;1721779;83;20964;-36
2022/10/08 08:21:27;;;;;;;9.13;3.22;;;;;;;15.41;96.37;101772.41;1692596;84;21513;-38
2022/10/08 08:23:55;;;;;;;3.90;2.98;;;;;;;15.72;94.99;101768.38;1692734;84;21512;-41
2022/10/08 08:26:27;;;;;;;3.77;2.67;;;;;;;15.98;92.41;101754.83;1666757;83;21595;-39
2022/10/08 08:29:00;;;;;;;7.30;2.77;;;;;;;16.15;90.81;101758.39;1693006;84;20943;-37
2022/10/08 08:31:33;;;;;;;10.82;3.33;;;;;;;16.32;89.53;101754.13;1692692;83;20967;-38
2022/10/08 08:34:04;;;;;;;8.43;3.52;;;;;;;16.50;87.79;101751.98;1692882;84;20958;-39
2022/10/08 08:36:34;;;;;;;10.72;4.05;;;;;;;16.67;87.74;101759.42;1692468;84;20991;-40
2022/10/08 08:39:01;;;;;;;13.15;3.33;;;;;;;16.85;87.49;101754.23;1692689;84;21158;-38
2022/10/08 08:41:55;;;;;;;6.67;3.17;;;;;;;17.03;87.79;101758.61;1692983;84;20892;-37
2022/10/08 08:44:40;;;;;;;10.75;3.47;;;;;;;17.18;84.40;101754.78;1692754;84;20998;-37
2022/10/08 08:47:23;;;;;;;9.75;3.02;;;;;;;17.34;84.86;101751.31;1692765;84;21003;-37
2022/10/08 08:49:54;;;;;;;3.70;2.70;;;;;;;17.51;82.62;101754.31;1692664;83;21002;-37
2022/10/08 08:52:24;;;;;;;6.10;2.90;;;;;;;17.63;80.39;101753.59;1692380;84;21029;-38
2022/10/08 08:54:52;;;;;;;6.30;2.58;;;;;;;17.75;81.34;101747.99;1692648;84;20864;-37
2022/10/08 08:57:53;;;;;;;9.98;2.35;;;;;;;17.93;81.01;101742.67;1692607;84;20954;-41
2022/10/08 09:00:23;;;;;;;8.45;2.50;;;;;;;18.09;77.34;101737.91;1692691;84;20963;-38
2022/10/08 09:03:05;;;;;;;3.60;2.30;;;;;;;18.27;76.90;101736.92;1692559;84;20970;-41
2022/10/08 09:05:35;;;;;;;3.58;2.17;;;;;;;18.43;75.71;101736.45;1721530;83;21800;-40
2022/10/08 09:08:21;;;;;;;7.08;2.60;;;;;;;18.52;75.05;101735.72;1721529;83;20947;-41
2022/10/08 09:11:01;;;;;;;2.50;2.02;;;;;;;18.64;73.52;101738.84;1692329;84;20915;-38
2022/10/08 09:13:36;;;;;;;5.53;2.45;;;;;;;18.64;73.10;101730.98;1692255;84;20911;-37
2022/10/08 09:16:03;;;;;;;2.77;2.40;;;;;;;18.74;73.61;101729.79;1692998;83;20923;-40
2022/10/08 09:18:31;;;;;;;9.78;2.90;;;;;;;18.81;72.08;101718.62;1666919;84;21157;-41
2022/10/08 09:20:58;;;;;;;2.95;2.62;;;;;;;18.84;71.63;101721.17;1692718;84;21471;-38
2022/10/08 09:23:25;;;;;;;5.45;2.55;;;;;;;18.91;70.36;101715.23;1692435;84;20990;-40
2022/10/08 09:25:59;;;;;;;3.00;2.45;;;;;;;19.01;70.80;101718.44;1721334;83;21041;-36
2022/10/08 09:28:48;;;;;;;2.83;2.22;;;;;;;19.16;70.11;101711.37;1721372;83;20991;-36
2022/10/08 09:31:32;;;;;;;3.05;2.25;;;;;;;19.18;67.24;101711.30;1692565;84;22081;-39
2022/10/08 09:34:15;;;;;;;3.05;2.00;;;;;;;19.14;68.27;101708.38;1692566;84;20907;-36
2022/10/08 09:37:02;;;;;;;7.28;2.27;;;;;;;19.27;69.00;101699.62;1721688;83;20939;-40
2022/10/08 09:39:34;;;;;;;6.62;2.10;;;;;;;19.43;68.26;101705.17;1688722;83;20998;-40
2022/10/08 09:42:18;;;;;;;2.77;2.08;;;;;;;19.54;67.82;101697.78;1749903;81;20936;-39
2022/10/08 09:44:55;;;;;;;6.72;2.52;;;;;;;19.71;66.44;101697.63;1722253;82;21234;-38
2022/10/08 09:47:23;;;;;;;3.72;2.30;;;;;;;19.78;65.50;101692.06;1750006;82;20945;-36
2022/10/08 09:50:05;;;;;;;4.28;2.22;;;;;;;19.84;65.45;101691.45;1749764;81;20972;-40
2022/10/08 09:52:34;;;;;;;4.97;2.30;;;;;;;19.86;64.33;101683.05;1749628;82;20893;-40
2022/10/08 09:55:09;;;;;;;5.15;2.33;;;;;;;19.93;65.24;101680.62;1749776;82;20999;-37
2022/10/08 09:57:47;;;;;;;4.78;2.47;;;;;;;19.94;63.25;101683.64;1749630;82;21575;-39
2022/10/08 10:00:29;;;;;;;4.75;2.52;;;;;;;19.85;63.48;101678.25;1749403;82;21605;-39
2022/10/08 10:02:57;;;;;;;3.10;2.80;;;;;;;19.79;63.17;101675.86;1749814;82;21355;-39
2022/10/08 10:05:27;;;;;;;7.40;2.92;;;;;;;19.67;62.84;101670.61;1749731;82;20861;-41
2022/10/08 10:07:54;;;;;;;6.37;2.65;;;;;;;19.62;64.04;101659.44;1749620;81;20924;-41
2022/10/08 10:10:39;;;;;;;5.62;2.80;;;;;;;19.67;63.37;101652.23;1749878;82;22037;-41
2022/10/08 10:13:13;;;;;;;2.90;2.60;;;;;;;19.70;64.43;101657.36;1750062;82;20965;-38
2022/10/08 10:15:54;;;;;;;3.40;2.37;;;;;;;19.71;62.90;101653.82;1750201;82;20853;-40
2022/10/08 10:18:30;;;;;;;6.60;3.30;;;;;;;19.68;62.54;101644.75;1749834;82;21433;-40
2022/10/08 10:21:04;;;;;;;6.47;2.90;;;;;;;19.79;63.41;101646.97;1749586;81;20944;-39
2022/10/08 10:23:55;;;;;;;6.33;1.92;;;;;;;20.04;61.74;101644.25;1749766;81;21369;-41
2022/10/08 10:26:26;;;;;;;4.03;2.70;;;;;;;20.13;56.68;101640.88;1749148;82;20897;-40
2022/10/08 10:29:15;;;;;;;5.95;2.90;;;;;;;20.20;56.49;101633.98;1749872;81;20944;-41
2022/10/08 10:31:47;;;;;;;3.17;2.60;;;;;;;20.17;54.25;101624.06;1750123;82;20865;-40
2022/10/08 10:34:19;;;;;;;3.95;2.12;;;;;;;19.95;56.17;101626.23;1749629;82;21557;-39
2022/10/08 10:36:58;;;;;;;3.67;2.05;;;;;;;20.05;57.13;101613.11;1750106;82;21140;-41
2022/10/08 10:39:39;;;;;;;3.87;2.30;;;;;;;20.36;56.29;101603.13;1719977;82;20979;-40
2022/10/08 10:42:22;;;;;;;3.87;2.15;;;;;;;20.69;54.47;101599.98;1746148;81;20960;-39
2022/10/08 10:45:14;;;;;;;1.80;1.70;;;;;;;20.91;54.22;101596.00;1746135;81;20933;-38
2022/10/08 10:47:41;;;;;;;9.68;2.30;;;;;;;21.08;51.47;101594.38;1738002;82;21521;-39
2022/10/08 10:50:13;;;;;;;5.67;2.20;;;;;;;21.31;51.33;101583.27;1716865;82;21674;-40
2022/10/08 10:53:13;;;;;;;9.03;2.35;;;;;;;21.44;51.18;101579.16;1716714;82;20920;-39
2022/10/08 10:56:02;;;;;;;7.42;3.37;;;;;;;21.61;51.44;101578.84;1746151;81;20973;-39
2022/10/08 10:58:35;;;;;;;3.72;3.25;;;;;;;21.81;51.86;101571.32;1746166;80;20957;-38
2022/10/08 11:01:19;;;;;;;8.25;2.90;;;;;;;21.93;50.81;101559.33;1678752;82;21048;-40
2022/10/08 11:04:39;;;;;;;2.90;2.70;;;;;;;21.92;48.51;101552.35;1695453;82;21487;-37
2022/10/08 11:07:26;;;;;;;9.68;2.65;;;;;;;21.90;49.68;101549.78;1746208;82;20940;-38
2022/10/08 11:10:05;;;;;;;10.38;2.98;;;;;;;22.00;49.80;101545.39;1746117;82;21370;-41
2022/10/08 11:12:50;;;;;;;5.72;2.50;;;;;;;22.17;50.24;101551.13;1746083;82;20936;-38
2022/10/08 11:15:26;;;;;;;5.67;2.42;;;;;;;22.20;48.82;101545.22;1746348;81;21450;-37
2022/10/08 11:18:20;;;;;;;4.15;2.42;;;;;;;22.17;48.04;101546.70;1746237;82;21306;-37
2022/10/08 11:21:26;;;;;;;5.05;2.45;;;;;;;22.19;49.06;101542.20;1731580;81;21580;-39
2022/10/08 11:24:28;;;;;;;3.87;2.02;;;;;;;22.20;47.14;101533.36;1726172;82;20952;-38
2022/10/08 11:27:07;;;;;;;3.60;2.37;;;;;;;22.16;48.18;101530.97;1740567;82;21010;-40
2022/10/08 11:30:05;;;;;;;2.85;2.47;;;;;;;22.16;47.20;101526.54;1728004;82;20873;-40
2022/10/08 11:32:32;;;;;;;9.80;2.60;;;;;;;22.03;46.23;101513.12;1730450;82;21239;-41
2022/10/08 11:35:17;;;;;;;4.90;2.45;;;;;;;21.75;46.34;101507.91;1709875;82;20922;-40
2022/10/08 11:37:52;;;;;;;;;;;;;;;21.73;48.02;101504.50;1699523;82;20988;-40
2022/10/08 11:40:39;;;;;;;3.72;2.40;;;;;;;21.79;48.09;101498.92;1722293;81;20121;-40
2022/10/08 11:43:29;;;;;;;6.05;2.40;;;;;;;21.92;49.06;101497.01;1711334;82;20985;-37
2022/10/08 11:46:29;;;;;;;4.08;2.37;;;;;;;21.99;46.65;101499.72;1691895;82;21149;-40
2022/10/08 11:49:02;;;;;;;3.25;2.77;;;;;;;21.97;47.59;101492.36;1711764;82;21041;-40